sensor_id;sensor_type;location;lat;lon;timestamp;P1;durP1;ratioP1;P2;durP2;ratioP2
38851;SDS011;24605;50.092;9.182;2023-05-10T00:00:59;8.10;;;5.72;;
38851;SDS011;24605;50.092;9.182;2023-05-10T00:03:26;9.00;;;5.38;;
38851;SDS011;24605;50.092;9.182;2023-05-10T00:05:52;8.80;;;5.05;;
38851;SDS011;24605;50.092;9.182;2023-05-10T00:08:18;6.95;;;4.90;;
38851;SDS011;24605;50.092;9.182;2023-05-10T00:10:45;7.53;;;4.88;;
38851;SDS011;24605;50.092;9.182;2023-05-10T00:13:13;6.13;;;4.53;;
38851;SDS011;24605;50.092;9.182;2023-05-10T00:15:39;3.78;;;2.17;;
38851;SDS011;24605;50.092;9.182;2023-05-10T00:18:06;2.08;;;1.10;;
38851;SDS011;24605;50.092;9.182;2023-05-10T00:20:32;2.97;;;1.20;;
38851;SDS011;24605;50.092;9.182;2023-05-10T00:22:59;1.88;;;0.90;;
38851;SDS011;24605;50.092;9.182;2023-05-10T00:25:26;1.70;;;0.90;;
38851;SDS011;24605;50.092;9.182;2023-05-10T00:27:52;1.38;;;0.70;;
38851;SDS011;24605;50.092;9.182;2023-05-10T00:30:21;1.23;;;0.70;;
38851;SDS011;24605;50.092;9.182;2023-05-10T00:32:48;2.63;;;0.57;;
38851;SDS011;24605;50.092;9.182;2023-05-10T00:35:14;1.10;;;0.70;;
38851;SDS011;24605;50.092;9.182;2023-05-10T00:37:41;1.00;;;0.55;;
38851;SDS011;24605;50.092;9.182;2023-05-10T00:40:08;1.15;;;0.57;;
38851;SDS011;24605;50.092;9.182;2023-05-10T00:42:35;1.63;;;0.50;;
38851;SDS011;24605;50.092;9.182;2023-05-10T00:45:02;1.17;;;0.60;;
38851;SDS011;24605;50.092;9.182;2023-05-10T00:47:30;2.08;;;0.70;;
38851;SDS011;24605;50.092;9.182;2023-05-10T00:49:57;2.55;;;0.52;;
38851;SDS011;24605;50.092;9.182;2023-05-10T00:52:25;1.50;;;0.70;;
38851;SDS011;24605;50.092;9.182;2023-05-10T00:54:52;0.80;;;0.50;;
38851;SDS011;24605;50.092;9.182;2023-05-10T00:57:19;1.10;;;0.60;;
38851;SDS011;24605;50.092;9.182;2023-05-10T00:59:46;0.95;;;0.73;;
38851;SDS011;24605;50.092;9.182;2023-05-10T01:02:14;0.95;;;0.50;;
38851;SDS011;24605;50.092;9.182;2023-05-10T01:04:42;1.77;;;0.50;;
38851;SDS011;24605;50.092;9.182;2023-05-10T01:07:09;0.90;;;0.47;;
38851;SDS011;24605;50.092;9.182;2023-05-10T01:09:36;3.03;;;0.60;;
38851;SDS011;24605;50.092;9.182;2023-05-10T01:12:02;1.73;;;0.65;;
38851;SDS011;24605;50.092;9.182;2023-05-10T01:14:31;1.42;;;0.60;;
38851;SDS011;24605;50.092;9.182;2023-05-10T01:16:59;3.22;;;0.93;;
38851;SDS011;24605;50.092;9.182;2023-05-10T01:19:28;1.63;;;0.70;;
38851;SDS011;24605;50.092;9.182;2023-05-10T01:21:59;0.50;;;0.50;;
38851;SDS011;24605;50.092;9.182;2023-05-10T01:33:40;2.72;;;0.80;;
38851;SDS011;24605;50.092;9.182;2023-05-10T01:38:44;2.72;;;1.02;;
38851;SDS011;24605;50.092;9.182;2023-05-10T01:41:17;1.40;;;0.90;;
38851;SDS011;24605;50.092;9.182;2023-05-10T01:43:48;1.20;;;0.80;;
38851;SDS011;24605;50.092;9.182;2023-05-10T01:46:23;11.13;;;1.10;;
38851;SDS011;24605;50.092;9.182;2023-05-10T01:48:56;3.42;;;0.90;;
38851;SDS011;24605;50.092;9.182;2023-05-10T01:51:26;1.75;;;0.90;;
38851;SDS011;24605;50.092;9.182;2023-05-10T01:53:57;6.03;;;1.10;;
38851;SDS011;24605;50.092;9.182;2023-05-10T01:56:28;1.40;;;0.80;;
38851;SDS011;24605;50.092;9.182;2023-05-10T01:58:56;2.13;;;1.00;;
38851;SDS011;24605;50.092;9.182;2023-05-10T02:01:26;1.83;;;0.80;;
38851;SDS011;24605;50.092;9.182;2023-05-10T02:03:53;1.50;;;0.90;;
38851;SDS011;24605;50.092;9.182;2023-05-10T02:06:24;2.03;;;1.20;;
38851;SDS011;24605;50.092;9.182;2023-05-10T02:08:53;3.33;;;1.50;;
38851;SDS011;24605;50.092;9.182;2023-05-10T02:11:21;2.70;;;1.30;;
38851;SDS011;24605;50.092;9.182;2023-05-10T02:13:49;2.58;;;1.17;;
38851;SDS011;24605;50.092;9.182;2023-05-10T02:16:17;1.90;;;1.00;;
38851;SDS011;24605;50.092;9.182;2023-05-10T02:18:48;2.38;;;1.10;;
38851;SDS011;24605;50.092;9.182;2023-05-10T02:21:19;2.83;;;1.50;;
38851;SDS011;24605;50.092;9.182;2023-05-10T02:23:48;2.20;;;1.20;;
38851;SDS011;24605;50.092;9.182;2023-05-10T02:26:18;1.48;;;0.98;;
38851;SDS011;24605;50.092;9.182;2023-05-10T02:28:47;3.40;;;1.20;;
38851;SDS011;24605;50.092;9.182;2023-05-10T02:31:15;2.08;;;1.05;;
38851;SDS011;24605;50.092;9.182;2023-05-10T02:33:42;2.60;;;1.02;;
38851;SDS011;24605;50.092;9.182;2023-05-10T02:36:12;7.07;;;1.20;;
38851;SDS011;24605;50.092;9.182;2023-05-10T02:38:41;1.80;;;1.10;;
38851;SDS011;24605;50.092;9.182;2023-05-10T02:41:09;2.60;;;1.20;;
38851;SDS011;24605;50.092;9.182;2023-05-10T02:43:37;2.88;;;1.30;;
38851;SDS011;24605;50.092;9.182;2023-05-10T02:46:06;1.80;;;1.00;;
38851;SDS011;24605;50.092;9.182;2023-05-10T02:48:32;2.00;;;1.30;;
38851;SDS011;24605;50.092;9.182;2023-05-10T02:51:00;1.63;;;1.20;;
38851;SDS011;24605;50.092;9.182;2023-05-10T02:53:31;2.78;;;1.48;;
38851;SDS011;24605;50.092;9.182;2023-05-10T02:56:01;2.47;;;1.50;;
38851;SDS011;24605;50.092;9.182;2023-05-10T02:58:32;4.68;;;1.70;;
38851;SDS011;24605;50.092;9.182;2023-05-10T03:00:59;4.53;;;1.58;;
38851;SDS011;24605;50.092;9.182;2023-05-10T03:03:26;3.83;;;1.80;;
38851;SDS011;24605;50.092;9.182;2023-05-10T03:05:52;3.13;;;1.70;;
38851;SDS011;24605;50.092;9.182;2023-05-10T03:08:20;3.35;;;1.67;;
38851;SDS011;24605;50.092;9.182;2023-05-10T03:10:48;3.65;;;1.80;;
38851;SDS011;24605;50.092;9.182;2023-05-10T03:13:25;3.83;;;1.80;;
38851;SDS011;24605;50.092;9.182;2023-05-10T03:16:03;4.57;;;1.80;;
38851;SDS011;24605;50.092;9.182;2023-05-10T03:18:36;2.83;;;1.50;;
38851;SDS011;24605;50.092;9.182;2023-05-10T03:21:07;6.75;;;1.80;;
38851;SDS011;24605;50.092;9.182;2023-05-10T03:23:40;3.33;;;1.98;;
38851;SDS011;24605;50.092;9.182;2023-05-10T03:26:09;4.53;;;2.28;;
38851;SDS011;24605;50.092;9.182;2023-05-10T03:28:39;3.58;;;2.33;;
38851;SDS011;24605;50.092;9.182;2023-05-10T03:31:07;4.57;;;2.50;;
38851;SDS011;24605;50.092;9.182;2023-05-10T03:33:34;6.15;;;2.20;;
38851;SDS011;24605;50.092;9.182;2023-05-10T03:36:01;3.58;;;1.83;;
38851;SDS011;24605;50.092;9.182;2023-05-10T03:38:27;4.47;;;1.98;;
38851;SDS011;24605;50.092;9.182;2023-05-10T03:40:54;10.30;;;2.50;;
38851;SDS011;24605;50.092;9.182;2023-05-10T03:43:20;4.80;;;2.05;;
38851;SDS011;24605;50.092;9.182;2023-05-10T03:45:48;3.05;;;2.10;;
38851;SDS011;24605;50.092;9.182;2023-05-10T03:48:14;3.35;;;2.20;;
38851;SDS011;24605;50.092;9.182;2023-05-10T03:50:41;3.22;;;2.00;;
38851;SDS011;24605;50.092;9.182;2023-05-10T03:53:07;3.60;;;2.05;;
38851;SDS011;24605;50.092;9.182;2023-05-10T03:55:34;5.22;;;1.70;;
38851;SDS011;24605;50.092;9.182;2023-05-10T03:58:01;2.85;;;1.90;;
38851;SDS011;24605;50.092;9.182;2023-05-10T04:00:27;5.07;;;2.00;;
38851;SDS011;24605;50.092;9.182;2023-05-10T04:02:56;3.15;;;2.05;;
38851;SDS011;24605;50.092;9.182;2023-05-10T04:05:23;3.03;;;2.05;;
38851;SDS011;24605;50.092;9.182;2023-05-10T04:07:53;4.03;;;2.17;;
38851;SDS011;24605;50.092;9.182;2023-05-10T04:10:19;2.97;;;2.08;;
38851;SDS011;24605;50.092;9.182;2023-05-10T04:12:46;3.95;;;2.30;;
38851;SDS011;24605;50.092;9.182;2023-05-10T04:15:13;3.65;;;2.10;;
38851;SDS011;24605;50.092;9.182;2023-05-10T04:17:39;4.93;;;2.38;;
38851;SDS011;24605;50.092;9.182;2023-05-10T04:20:08;4.00;;;2.15;;
38851;SDS011;24605;50.092;9.182;2023-05-10T04:22:35;4.53;;;2.80;;
38851;SDS011;24605;50.092;9.182;2023-05-10T04:25:01;4.28;;;2.40;;
38851;SDS011;24605;50.092;9.182;2023-05-10T04:27:28;4.05;;;2.08;;
38851;SDS011;24605;50.092;9.182;2023-05-10T04:29:54;4.47;;;2.20;;
38851;SDS011;24605;50.092;9.182;2023-05-10T04:32:21;4.57;;;2.10;;
38851;SDS011;24605;50.092;9.182;2023-05-10T04:34:47;2.70;;;1.90;;
38851;SDS011;24605;50.092;9.182;2023-05-10T04:37:15;4.30;;;2.22;;
38851;SDS011;24605;50.092;9.182;2023-05-10T04:39:42;3.35;;;1.63;;
38851;SDS011;24605;50.092;9.182;2023-05-10T04:42:08;5.97;;;2.20;;
38851;SDS011;24605;50.092;9.182;2023-05-10T04:44:35;4.70;;;2.38;;
38851;SDS011;24605;50.092;9.182;2023-05-10T04:47:01;3.13;;;2.20;;
38851;SDS011;24605;50.092;9.182;2023-05-10T04:49:28;3.90;;;2.00;;
38851;SDS011;24605;50.092;9.182;2023-05-10T04:51:55;7.13;;;2.22;;
38851;SDS011;24605;50.092;9.182;2023-05-10T04:54:23;5.47;;;2.15;;
38851;SDS011;24605;50.092;9.182;2023-05-10T04:56:49;4.55;;;2.20;;
38851;SDS011;24605;50.092;9.182;2023-05-10T04:59:16;8.85;;;2.38;;
38851;SDS011;24605;50.092;9.182;2023-05-10T05:01:42;3.95;;;2.22;;
38851;SDS011;24605;50.092;9.182;2023-05-10T05:04:09;3.85;;;2.58;;
38851;SDS011;24605;50.092;9.182;2023-05-10T05:06:35;3.78;;;2.30;;
38851;SDS011;24605;50.092;9.182;2023-05-10T05:09:02;4.75;;;2.60;;
38851;SDS011;24605;50.092;9.182;2023-05-10T05:11:29;5.03;;;2.85;;
38851;SDS011;24605;50.092;9.182;2023-05-10T05:13:56;5.78;;;2.70;;
38851;SDS011;24605;50.092;9.182;2023-05-10T05:16:23;5.07;;;2.60;;
38851;SDS011;24605;50.092;9.182;2023-05-10T05:18:50;6.75;;;2.30;;
38851;SDS011;24605;50.092;9.182;2023-05-10T05:21:17;4.63;;;2.50;;
38851;SDS011;24605;50.092;9.182;2023-05-10T05:23:44;4.13;;;2.65;;
38851;SDS011;24605;50.092;9.182;2023-05-10T05:26:11;5.25;;;3.05;;
38851;SDS011;24605;50.092;9.182;2023-05-10T05:28:39;5.18;;;2.88;;
38851;SDS011;24605;50.092;9.182;2023-05-10T05:31:05;6.93;;;2.83;;
38851;SDS011;24605;50.092;9.182;2023-05-10T05:33:33;5.03;;;2.80;;
38851;SDS011;24605;50.092;9.182;2023-05-10T05:36:00;6.65;;;2.90;;
38851;SDS011;24605;50.092;9.182;2023-05-10T05:38:27;5.72;;;3.00;;
38851;SDS011;24605;50.092;9.182;2023-05-10T05:40:53;5.13;;;2.90;;
38851;SDS011;24605;50.092;9.182;2023-05-10T05:43:20;4.13;;;3.00;;
38851;SDS011;24605;50.092;9.182;2023-05-10T05:45:47;6.35;;;3.30;;
38851;SDS011;24605;50.092;9.182;2023-05-10T05:48:14;5.68;;;3.30;;
38851;SDS011;24605;50.092;9.182;2023-05-10T05:50:41;6.65;;;3.30;;
38851;SDS011;24605;50.092;9.182;2023-05-10T05:53:07;6.65;;;3.60;;
38851;SDS011;24605;50.092;9.182;2023-05-10T05:55:34;5.72;;;3.60;;
38851;SDS011;24605;50.092;9.182;2023-05-10T05:58:01;7.68;;;3.80;;
38851;SDS011;24605;50.092;9.182;2023-05-10T06:00:27;5.13;;;3.70;;
38851;SDS011;24605;50.092;9.182;2023-05-10T06:02:55;5.00;;;3.72;;
38851;SDS011;24605;50.092;9.182;2023-05-10T06:05:22;5.35;;;3.83;;
38851;SDS011;24605;50.092;9.182;2023-05-10T06:07:48;10.07;;;4.10;;
38851;SDS011;24605;50.092;9.182;2023-05-10T06:10:15;6.60;;;3.83;;
38851;SDS011;24605;50.092;9.182;2023-05-10T06:12:41;7.35;;;3.95;;
38851;SDS011;24605;50.092;9.182;2023-05-10T06:15:08;7.72;;;4.30;;
38851;SDS011;24605;50.092;9.182;2023-05-10T06:17:35;8.43;;;4.10;;
38851;SDS011;24605;50.092;9.182;2023-05-10T06:20:05;7.47;;;4.00;;
38851;SDS011;24605;50.092;9.182;2023-05-10T06:22:33;7.07;;;3.58;;
38851;SDS011;24605;50.092;9.182;2023-05-10T06:24:59;6.90;;;3.70;;
38851;SDS011;24605;50.092;9.182;2023-05-10T06:27:26;6.43;;;4.00;;
38851;SDS011;24605;50.092;9.182;2023-05-10T06:29:52;5.60;;;3.33;;
38851;SDS011;24605;50.092;9.182;2023-05-10T06:32:18;7.63;;;3.63;;
38851;SDS011;24605;50.092;9.182;2023-05-10T06:34:45;7.00;;;3.40;;
38851;SDS011;24605;50.092;9.182;2023-05-10T06:37:13;7.15;;;3.70;;
38851;SDS011;24605;50.092;9.182;2023-05-10T06:39:39;5.45;;;3.47;;
38851;SDS011;24605;50.092;9.182;2023-05-10T06:42:05;5.88;;;3.03;;
38851;SDS011;24605;50.092;9.182;2023-05-10T06:44:32;6.07;;;3.65;;
38851;SDS011;24605;50.092;9.182;2023-05-10T06:46:58;6.45;;;3.33;;
38851;SDS011;24605;50.092;9.182;2023-05-10T06:49:25;10.45;;;3.75;;
38851;SDS011;24605;50.092;9.182;2023-05-10T06:51:51;6.88;;;3.88;;
38851;SDS011;24605;50.092;9.182;2023-05-10T06:54:19;8.68;;;4.45;;
38851;SDS011;24605;50.092;9.182;2023-05-10T06:56:46;5.93;;;3.97;;
38851;SDS011;24605;50.092;9.182;2023-05-10T06:59:12;5.85;;;3.72;;
38851;SDS011;24605;50.092;9.182;2023-05-10T07:01:40;7.20;;;3.95;;
38851;SDS011;24605;50.092;9.182;2023-05-10T07:04:06;6.85;;;3.42;;
38851;SDS011;24605;50.092;9.182;2023-05-10T07:06:33;10.07;;;3.70;;
38851;SDS011;24605;50.092;9.182;2023-05-10T07:09:00;6.80;;;3.60;;
38851;SDS011;24605;50.092;9.182;2023-05-10T07:11:28;9.25;;;3.72;;
38851;SDS011;24605;50.092;9.182;2023-05-10T07:13:54;9.43;;;4.28;;
38851;SDS011;24605;50.092;9.182;2023-05-10T07:16:21;8.82;;;3.70;;
38851;SDS011;24605;50.092;9.182;2023-05-10T07:18:47;7.82;;;4.13;;
38851;SDS011;24605;50.092;9.182;2023-05-10T07:21:15;7.60;;;3.88;;
38851;SDS011;24605;50.092;9.182;2023-05-10T07:23:41;8.57;;;3.70;;
38851;SDS011;24605;50.092;9.182;2023-05-10T07:26:08;8.60;;;3.83;;
38851;SDS011;24605;50.092;9.182;2023-05-10T07:28:36;12.55;;;3.80;;
38851;SDS011;24605;50.092;9.182;2023-05-10T07:31:03;8.52;;;3.60;;
38851;SDS011;24605;50.092;9.182;2023-05-10T07:33:29;8.60;;;3.40;;
38851;SDS011;24605;50.092;9.182;2023-05-10T07:35:56;5.80;;;3.60;;
38851;SDS011;24605;50.092;9.182;2023-05-10T07:38:22;7.90;;;3.88;;
38851;SDS011;24605;50.092;9.182;2023-05-10T07:40:49;6.13;;;3.22;;
38851;SDS011;24605;50.092;9.182;2023-05-10T07:43:15;5.07;;;3.47;;
38851;SDS011;24605;50.092;9.182;2023-05-10T07:45:43;9.15;;;3.78;;
38851;SDS011;24605;50.092;9.182;2023-05-10T07:48:09;6.07;;;3.70;;
38851;SDS011;24605;50.092;9.182;2023-05-10T07:50:36;9.75;;;3.55;;
38851;SDS011;24605;50.092;9.182;2023-05-10T07:53:02;10.05;;;3.08;;
38851;SDS011;24605;50.092;9.182;2023-05-10T07:55:29;11.23;;;3.83;;
38851;SDS011;24605;50.092;9.182;2023-05-10T07:57:55;8.38;;;3.38;;
38851;SDS011;24605;50.092;9.182;2023-05-10T08:00:22;8.93;;;3.08;;
38851;SDS011;24605;50.092;9.182;2023-05-10T08:02:49;7.00;;;3.17;;
38851;SDS011;24605;50.092;9.182;2023-05-10T08:05:16;6.22;;;3.42;;
38851;SDS011;24605;50.092;9.182;2023-05-10T08:07:42;6.22;;;3.70;;
38851;SDS011;24605;50.092;9.182;2023-05-10T08:10:09;9.57;;;3.35;;
38851;SDS011;24605;50.092;9.182;2023-05-10T08:12:37;6.03;;;3.08;;
38851;SDS011;24605;50.092;9.182;2023-05-10T08:15:04;6.22;;;3.00;;
38851;SDS011;24605;50.092;9.182;2023-05-10T08:17:31;8.20;;;3.08;;
38851;SDS011;24605;50.092;9.182;2023-05-10T08:19:59;10.45;;;3.33;;
38851;SDS011;24605;50.092;9.182;2023-05-10T08:22:26;7.93;;;3.60;;
38851;SDS011;24605;50.092;9.182;2023-05-10T08:24:52;6.05;;;3.20;;
38851;SDS011;24605;50.092;9.182;2023-05-10T08:27:18;8.57;;;3.50;;
38851;SDS011;24605;50.092;9.182;2023-05-10T08:29:46;7.40;;;2.83;;
38851;SDS011;24605;50.092;9.182;2023-05-10T08:32:13;10.10;;;3.45;;
38851;SDS011;24605;50.092;9.182;2023-05-10T08:34:39;5.97;;;3.17;;
38851;SDS011;24605;50.092;9.182;2023-05-10T08:37:07;9.80;;;3.40;;
38851;SDS011;24605;50.092;9.182;2023-05-10T08:39:34;6.97;;;3.30;;
38851;SDS011;24605;50.092;9.182;2023-05-10T08:42:01;9.07;;;3.60;;
38851;SDS011;24605;50.092;9.182;2023-05-10T08:44:30;8.80;;;3.25;;
38851;SDS011;24605;50.092;9.182;2023-05-10T08:46:57;7.95;;;3.22;;
38851;SDS011;24605;50.092;9.182;2023-05-10T08:49:27;7.22;;;3.33;;
38851;SDS011;24605;50.092;9.182;2023-05-10T08:51:57;6.05;;;3.33;;
38851;SDS011;24605;50.092;9.182;2023-05-10T08:54:29;10.63;;;3.45;;
38851;SDS011;24605;50.092;9.182;2023-05-10T08:56:57;8.43;;;3.33;;
38851;SDS011;24605;50.092;9.182;2023-05-10T08:59:23;7.13;;;3.13;;
38851;SDS011;24605;50.092;9.182;2023-05-10T09:01:50;8.02;;;2.92;;
38851;SDS011;24605;50.092;9.182;2023-05-10T09:04:18;8.95;;;3.10;;
38851;SDS011;24605;50.092;9.182;2023-05-10T09:06:45;9.43;;;3.20;;
38851;SDS011;24605;50.092;9.182;2023-05-10T09:09:11;6.22;;;3.00;;
38851;SDS011;24605;50.092;9.182;2023-05-10T09:11:39;6.97;;;2.65;;
38851;SDS011;24605;50.092;9.182;2023-05-10T09:14:06;8.48;;;3.05;;
38851;SDS011;24605;50.092;9.182;2023-05-10T09:16:34;5.47;;;2.78;;
38851;SDS011;24605;50.092;9.182;2023-05-10T09:19:00;6.43;;;2.55;;
38851;SDS011;24605;50.092;9.182;2023-05-10T09:21:27;8.18;;;3.53;;
38851;SDS011;24605;50.092;9.182;2023-05-10T09:23:54;6.30;;;2.95;;
38851;SDS011;24605;50.092;9.182;2023-05-10T09:26:23;4.82;;;3.03;;
38851;SDS011;24605;50.092;9.182;2023-05-10T09:28:52;5.78;;;2.78;;
38851;SDS011;24605;50.092;9.182;2023-05-10T09:31:19;3.90;;;2.30;;
38851;SDS011;24605;50.092;9.182;2023-05-10T09:33:46;6.40;;;2.47;;
38851;SDS011;24605;50.092;9.182;2023-05-10T09:36:13;5.70;;;2.80;;
38851;SDS011;24605;50.092;9.182;2023-05-10T09:38:46;8.15;;;2.85;;
38851;SDS011;24605;50.092;9.182;2023-05-10T09:41:17;7.18;;;2.90;;
38851;SDS011;24605;50.092;9.182;2023-05-10T09:43:44;5.75;;;2.38;;
38851;SDS011;24605;50.092;9.182;2023-05-10T09:46:12;6.65;;;2.33;;
38851;SDS011;24605;50.092;9.182;2023-05-10T09:48:40;7.38;;;2.33;;
38851;SDS011;24605;50.092;9.182;2023-05-10T09:51:08;6.28;;;2.53;;
38851;SDS011;24605;50.092;9.182;2023-05-10T09:53:35;5.00;;;1.90;;
38851;SDS011;24605;50.092;9.182;2023-05-10T09:56:01;3.80;;;2.00;;
38851;SDS011;24605;50.092;9.182;2023-05-10T09:58:28;5.63;;;2.50;;
38851;SDS011;24605;50.092;9.182;2023-05-10T10:00:55;3.70;;;2.10;;
38851;SDS011;24605;50.092;9.182;2023-05-10T10:03:23;7.22;;;2.22;;
38851;SDS011;24605;50.092;9.182;2023-05-10T10:05:50;5.70;;;1.83;;
38851;SDS011;24605;50.092;9.182;2023-05-10T10:08:18;5.05;;;2.15;;
38851;SDS011;24605;50.092;9.182;2023-05-10T10:10:45;5.40;;;1.92;;
38851;SDS011;24605;50.092;9.182;2023-05-10T10:13:12;5.72;;;2.15;;
38851;SDS011;24605;50.092;9.182;2023-05-10T10:15:40;5.03;;;2.35;;
38851;SDS011;24605;50.092;9.182;2023-05-10T10:18:08;7.38;;;2.38;;
38851;SDS011;24605;50.092;9.182;2023-05-10T10:20:40;7.00;;;2.40;;
38851;SDS011;24605;50.092;9.182;2023-05-10T10:23:07;7.10;;;2.22;;
38851;SDS011;24605;50.092;9.182;2023-05-10T10:25:34;6.70;;;1.85;;
38851;SDS011;24605;50.092;9.182;2023-05-10T10:28:08;4.75;;;1.30;;
38851;SDS011;24605;50.092;9.182;2023-05-10T10:30:42;2.70;;;1.10;;
38851;SDS011;24605;50.092;9.182;2023-05-10T10:33:24;2.78;;;1.30;;
38851;SDS011;24605;50.092;9.182;2023-05-10T10:36:01;5.07;;;1.50;;
38851;SDS011;24605;50.092;9.182;2023-05-10T10:38:35;4.80;;;1.60;;
38851;SDS011;24605;50.092;9.182;2023-05-10T10:41:08;5.10;;;1.63;;
38851;SDS011;24605;50.092;9.182;2023-05-10T10:43:35;6.25;;;1.65;;
38851;SDS011;24605;50.092;9.182;2023-05-10T10:46:09;3.00;;;1.42;;
38851;SDS011;24605;50.092;9.182;2023-05-10T10:48:37;4.03;;;1.70;;
38851;SDS011;24605;50.092;9.182;2023-05-10T10:51:05;3.92;;;1.30;;
38851;SDS011;24605;50.092;9.182;2023-05-10T10:53:32;4.95;;;1.42;;
38851;SDS011;24605;50.092;9.182;2023-05-10T10:56:05;4.88;;;1.40;;
38851;SDS011;24605;50.092;9.182;2023-05-10T10:58:36;4.03;;;1.48;;
38851;SDS011;24605;50.092;9.182;2023-05-10T11:01:09;4.10;;;1.67;;
38851;SDS011;24605;50.092;9.182;2023-05-10T11:03:37;2.97;;;1.38;;
38851;SDS011;24605;50.092;9.182;2023-05-10T11:06:06;3.33;;;1.30;;
38851;SDS011;24605;50.092;9.182;2023-05-10T11:08:34;3.08;;;1.35;;
38851;SDS011;24605;50.092;9.182;2023-05-10T11:11:08;4.03;;;1.30;;
38851;SDS011;24605;50.092;9.182;2023-05-10T11:13:38;5.20;;;1.30;;
38851;SDS011;24605;50.092;9.182;2023-05-10T11:16:10;3.50;;;1.30;;
38851;SDS011;24605;50.092;9.182;2023-05-10T11:18:38;1.98;;;1.10;;
38851;SDS011;24605;50.092;9.182;2023-05-10T11:21:08;3.33;;;1.38;;
38851;SDS011;24605;50.092;9.182;2023-05-10T11:23:47;4.07;;;1.35;;
38851;SDS011;24605;50.092;9.182;2023-05-10T11:26:15;2.10;;;0.90;;
38851;SDS011;24605;50.092;9.182;2023-05-10T11:28:42;3.33;;;0.90;;
38851;SDS011;24605;50.092;9.182;2023-05-10T11:31:10;3.35;;;0.98;;
38851;SDS011;24605;50.092;9.182;2023-05-10T11:33:42;1.83;;;0.70;;
38851;SDS011;24605;50.092;9.182;2023-05-10T11:36:11;1.85;;;0.85;;
38851;SDS011;24605;50.092;9.182;2023-05-10T11:38:38;2.47;;;0.80;;
38851;SDS011;24605;50.092;9.182;2023-05-10T11:41:05;4.72;;;1.15;;
38851;SDS011;24605;50.092;9.182;2023-05-10T11:43:31;2.08;;;1.00;;
38851;SDS011;24605;50.092;9.182;2023-05-10T11:45:58;2.75;;;0.85;;
38851;SDS011;24605;50.092;9.182;2023-05-10T11:48:25;2.15;;;0.82;;
38851;SDS011;24605;50.092;9.182;2023-05-10T11:50:51;2.50;;;0.90;;
38851;SDS011;24605;50.092;9.182;2023-05-10T11:53:24;2.60;;;0.80;;
38851;SDS011;24605;50.092;9.182;2023-05-10T11:55:52;3.92;;;1.20;;
38851;SDS011;24605;50.092;9.182;2023-05-10T11:58:18;2.40;;;0.98;;
38851;SDS011;24605;50.092;9.182;2023-05-10T12:00:46;3.33;;;1.20;;
38851;SDS011;24605;50.092;9.182;2023-05-10T12:03:13;2.00;;;0.85;;
38851;SDS011;24605;50.092;9.182;2023-05-10T12:05:40;2.25;;;0.70;;
38851;SDS011;24605;50.092;9.182;2023-05-10T12:08:10;2.22;;;0.73;;
38851;SDS011;24605;50.092;9.182;2023-05-10T12:10:38;2.33;;;0.88;;
38851;SDS011;24605;50.092;9.182;2023-05-10T12:13:05;1.65;;;0.80;;
38851;SDS011;24605;50.092;9.182;2023-05-10T12:15:36;3.20;;;1.30;;
38851;SDS011;24605;50.092;9.182;2023-05-10T12:18:02;2.67;;;1.00;;
38851;SDS011;24605;50.092;9.182;2023-05-10T12:20:30;3.55;;;1.10;;
38851;SDS011;24605;50.092;9.182;2023-05-10T12:22:57;5.25;;;1.50;;
38851;SDS011;24605;50.092;9.182;2023-05-10T12:25:29;5.90;;;1.75;;
38851;SDS011;24605;50.092;9.182;2023-05-10T12:27:58;3.35;;;1.30;;
38851;SDS011;24605;50.092;9.182;2023-05-10T12:30:27;3.88;;;1.20;;
38851;SDS011;24605;50.092;9.182;2023-05-10T12:32:59;2.83;;;1.00;;
38851;SDS011;24605;50.092;9.182;2023-05-10T12:35:29;5.68;;;1.00;;
38851;SDS011;24605;50.092;9.182;2023-05-10T12:37:56;2.97;;;1.02;;
38851;SDS011;24605;50.092;9.182;2023-05-10T12:40:22;2.35;;;0.90;;
38851;SDS011;24605;50.092;9.182;2023-05-10T12:42:49;3.80;;;1.10;;
38851;SDS011;24605;50.092;9.182;2023-05-10T12:45:18;3.33;;;0.90;;
38851;SDS011;24605;50.092;9.182;2023-05-10T12:47:45;4.13;;;1.08;;
38851;SDS011;24605;50.092;9.182;2023-05-10T12:50:11;4.28;;;1.20;;
38851;SDS011;24605;50.092;9.182;2023-05-10T12:52:37;1.65;;;0.88;;
38851;SDS011;24605;50.092;9.182;2023-05-10T12:55:04;2.17;;;1.10;;
38851;SDS011;24605;50.092;9.182;2023-05-10T12:57:31;4.38;;;1.05;;
38851;SDS011;24605;50.092;9.182;2023-05-10T12:59:58;2.80;;;1.38;;
38851;SDS011;24605;50.092;9.182;2023-05-10T13:02:26;2.72;;;1.10;;
38851;SDS011;24605;50.092;9.182;2023-05-10T13:04:52;2.30;;;0.90;;
38851;SDS011;24605;50.092;9.182;2023-05-10T13:07:19;3.58;;;0.90;;
38851;SDS011;24605;50.092;9.182;2023-05-10T13:09:45;1.65;;;0.75;;
38851;SDS011;24605;50.092;9.182;2023-05-10T13:12:12;4.55;;;0.88;;
38851;SDS011;24605;50.092;9.182;2023-05-10T13:14:38;2.92;;;0.80;;
38851;SDS011;24605;50.092;9.182;2023-05-10T13:17:06;2.05;;;0.85;;
38851;SDS011;24605;50.092;9.182;2023-05-10T13:19:34;1.73;;;0.80;;
38851;SDS011;24605;50.092;9.182;2023-05-10T13:22:01;1.83;;;0.77;;
38851;SDS011;24605;50.092;9.182;2023-05-10T13:24:27;1.55;;;0.85;;
38851;SDS011;24605;50.092;9.182;2023-05-10T13:26:54;3.65;;;1.00;;
38851;SDS011;24605;50.092;9.182;2023-05-10T13:29:20;2.15;;;0.70;;
38851;SDS011;24605;50.092;9.182;2023-05-10T13:31:47;2.38;;;0.80;;
38851;SDS011;24605;50.092;9.182;2023-05-10T13:34:14;4.10;;;0.80;;
38851;SDS011;24605;50.092;9.182;2023-05-10T13:36:42;6.05;;;1.05;;
38851;SDS011;24605;50.092;9.182;2023-05-10T13:39:08;2.05;;;0.77;;
38851;SDS011;24605;50.092;9.182;2023-05-10T13:41:35;3.20;;;0.93;;
38851;SDS011;24605;50.092;9.182;2023-05-10T13:44:01;1.85;;;0.70;;
38851;SDS011;24605;50.092;9.182;2023-05-10T13:46:28;1.40;;;0.70;;
38851;SDS011;24605;50.092;9.182;2023-05-10T13:48:55;3.08;;;0.90;;
38851;SDS011;24605;50.092;9.182;2023-05-10T13:51:21;1.88;;;0.80;;
38851;SDS011;24605;50.092;9.182;2023-05-10T13:53:49;1.48;;;0.75;;
38851;SDS011;24605;50.092;9.182;2023-05-10T13:56:17;3.13;;;0.85;;
38851;SDS011;24605;50.092;9.182;2023-05-10T13:58:43;1.80;;;0.70;;
38851;SDS011;24605;50.092;9.182;2023-05-10T14:01:09;1.60;;;0.57;;
38851;SDS011;24605;50.092;9.182;2023-05-10T14:03:37;1.83;;;0.70;;
38851;SDS011;24605;50.092;9.182;2023-05-10T14:06:03;1.65;;;0.80;;
38851;SDS011;24605;50.092;9.182;2023-05-10T14:08:30;2.83;;;0.80;;
38851;SDS011;24605;50.092;9.182;2023-05-10T14:10:57;4.25;;;1.70;;
38851;SDS011;24605;50.092;9.182;2023-05-10T14:13:24;2.38;;;0.80;;
38851;SDS011;24605;50.092;9.182;2023-05-10T14:15:50;1.63;;;1.00;;
38851;SDS011;24605;50.092;9.182;2023-05-10T14:18:18;4.82;;;0.85;;
38851;SDS011;24605;50.092;9.182;2023-05-10T14:20:44;1.08;;;0.60;;
38851;SDS011;24605;50.092;9.182;2023-05-10T14:23:11;3.03;;;1.00;;
38851;SDS011;24605;50.092;9.182;2023-05-10T14:25:39;2.28;;;0.80;;
38851;SDS011;24605;50.092;9.182;2023-05-10T14:28:07;3.10;;;0.60;;
38851;SDS011;24605;50.092;9.182;2023-05-10T14:30:34;7.47;;;1.00;;
38851;SDS011;24605;50.092;9.182;2023-05-10T14:33:01;3.95;;;0.80;;
38851;SDS011;24605;50.092;9.182;2023-05-10T14:35:28;1.38;;;0.75;;
38851;SDS011;24605;50.092;9.182;2023-05-10T14:37:56;2.40;;;0.98;;
38851;SDS011;24605;50.092;9.182;2023-05-10T14:40:22;0.98;;;0.60;;
38851;SDS011;24605;50.092;9.182;2023-05-10T14:42:49;1.83;;;0.55;;
38851;SDS011;24605;50.092;9.182;2023-05-10T14:45:19;1.20;;;0.75;;
38851;SDS011;24605;50.092;9.182;2023-05-10T14:47:46;1.65;;;0.70;;
38851;SDS011;24605;50.092;9.182;2023-05-10T14:50:13;4.60;;;0.60;;
38851;SDS011;24605;50.092;9.182;2023-05-10T14:52:39;2.63;;;0.85;;
38851;SDS011;24605;50.092;9.182;2023-05-10T14:55:06;4.88;;;0.68;;
38851;SDS011;24605;50.092;9.182;2023-05-10T14:57:33;2.60;;;0.65;;
38851;SDS011;24605;50.092;9.182;2023-05-10T15:00:00;3.50;;;0.80;;
38851;SDS011;24605;50.092;9.182;2023-05-10T15:02:27;1.58;;;0.50;;